createdAt,value
2019-05-22T00:01:52.632Z,24.47
2019-05-22T00:04:25.720Z,24.43
2019-05-22T00:06:56.180Z,24.13
2019-05-22T00:09:27.911Z,23.83
2019-05-22T00:11:58.461Z,24.43
2019-05-22T00:14:28.081Z,23.87
2019-05-22T00:16:57.033Z,24.43
2019-05-22T00:19:27.411Z,23.17
2019-05-22T00:21:57.500Z,23.37
2019-05-22T00:24:27.632Z,22.00
2019-05-22T00:26:58.343Z,22.17
2019-05-22T00:29:28.643Z,23.20
2019-05-22T00:31:58.123Z,23.47
2019-05-22T00:34:28.261Z,22.63
2019-05-22T00:36:57.065Z,22.40
2019-05-22T00:39:27.505Z,23.10
2019-05-22T00:41:57.124Z,22.50
2019-05-22T00:44:25.925Z,23.33
2019-05-22T00:46:55.677Z,23.30
2019-05-22T00:49:27.544Z,22.87
2019-05-22T00:52:05.852Z,23.30
2019-05-22T00:54:37.906Z,22.83
2019-05-22T00:57:17.485Z,21.93
2019-05-22T00:59:47.605Z,23.10
2019-05-22T01:02:19.396Z,24.63
2019-05-22T01:04:49.888Z,22.27
2019-05-22T01:07:18.468Z,22.97
2019-05-22T01:09:49.107Z,24.37
2019-05-22T01:12:22.252Z,24.33
2019-05-22T01:14:53.535Z,24.40
2019-05-22T01:17:24.160Z,24.17
2019-05-22T01:19:54.420Z,23.23
2019-05-22T01:22:24.146Z,22.17
2019-05-22T01:24:54.491Z,23.83
2019-05-22T01:27:26.268Z,23.33
2019-05-22T01:29:57.423Z,22.93
2019-05-22T01:32:38.089Z,24.70
2019-05-22T01:35:10.215Z,23.57
2019-05-22T01:37:42.719Z,23.93
2019-05-22T01:40:15.940Z,24.73
2019-05-22T01:42:46.328Z,23.47
2019-05-22T01:45:16.266Z,23.27
2019-05-22T01:47:52.725Z,22.70
2019-05-22T01:50:29.288Z,22.63
2019-05-22T01:52:58.045Z,24.67
2019-05-22T01:55:27.845Z,26.37
2019-05-22T01:57:57.256Z,25.23
2019-05-22T02:00:28.000Z,25.40
2019-05-22T02:02:57.054Z,25.87
2019-05-22T02:05:26.612Z,26.93
2019-05-22T02:07:55.492Z,26.13
2019-05-22T02:10:30.072Z,25.33
2019-05-22T02:13:02.884Z,25.37
2019-05-22T02:15:33.663Z,25.07
2019-05-22T02:18:06.381Z,25.53
2019-05-22T02:20:35.508Z,25.13
2019-05-22T02:23:05.878Z,24.23
2019-05-22T02:25:34.629Z,25.97
2019-05-22T02:28:06.305Z,24.20
2019-05-22T02:30:36.412Z,25.30
2019-05-22T02:33:06.937Z,24.77
2019-05-22T02:35:36.584Z,23.70
2019-05-22T02:38:06.285Z,24.00
2019-05-22T02:40:37.862Z,23.50
2019-05-22T02:43:07.915Z,23.93
2019-05-22T02:45:36.670Z,22.57
2019-05-22T02:48:08.032Z,22.17
2019-05-22T02:50:39.486Z,23.53
2019-05-22T02:53:11.242Z,23.97
2019-05-22T02:55:40.528Z,22.77
2019-05-22T02:58:10.848Z,23.00
2019-05-22T03:00:58.492Z,23.90
2019-05-22T03:03:27.288Z,22.63
2019-05-22T03:05:56.602Z,24.43
2019-05-22T03:08:40.054Z,23.97
2019-05-22T03:11:09.474Z,24.47
2019-05-22T03:13:57.631Z,23.57
2019-05-22T03:16:28.688Z,23.83
2019-05-22T03:19:08.446Z,23.53
2019-05-22T03:21:28.741Z,22.33
2019-05-22T03:23:57.442Z,22.93
2019-05-22T03:26:49.327Z,22.87
2019-05-22T03:29:19.851Z,21.73
2019-05-22T03:31:48.742Z,22.43
2019-05-22T03:34:17.902Z,22.57
2019-05-22T03:36:47.410Z,20.77
2019-05-22T03:39:16.584Z,22.67
2019-05-22T03:41:45.776Z,22.73
2019-05-22T03:44:16.122Z,23.47
2019-05-22T03:46:47.775Z,23.07
2019-05-22T03:49:29.683Z,22.33
2019-05-22T03:51:50.653Z,23.57
2019-05-22T03:54:20.634Z,22.13
2019-05-22T03:56:49.704Z,20.93
2019-05-22T03:59:18.579Z,22.33
2019-05-22T04:01:48.077Z,22.87
2019-05-22T04:04:20.161Z,23.03
2019-05-22T04:06:51.098Z,24.43
2019-05-22T04:09:22.808Z,23.33
2019-05-22T04:11:51.887Z,23.83
2019-05-22T04:14:21.431Z,23.53
2019-05-22T04:16:52.257Z,23.70
2019-05-22T04:19:21.480Z,24.27
2019-05-22T04:21:50.169Z,23.20
2019-05-22T04:24:19.544Z,23.47
2019-05-22T04:26:50.540Z,23.13
2019-05-22T04:29:19.417Z,21.67
2019-05-22T04:32:00.529Z,23.23
2019-05-22T04:34:29.486Z,22.67
2019-05-22T04:36:58.338Z,22.53
2019-05-22T04:39:29.150Z,24.03
2019-05-22T04:41:58.977Z,23.07
2019-05-22T04:44:27.946Z,23.00
2019-05-22T04:46:56.822Z,22.73
2019-05-22T04:49:26.233Z,23.27
2019-05-22T04:51:55.343Z,23.13
2019-05-22T04:54:24.973Z,23.87
2019-05-22T04:56:54.435Z,22.30
2019-05-22T04:59:23.949Z,22.77
2019-05-22T05:01:52.367Z,21.47
2019-05-22T05:04:21.025Z,21.83
2019-05-22T05:06:50.379Z,22.83
2019-05-22T05:09:19.829Z,22.67
2019-05-22T05:11:49.244Z,21.73
2019-05-22T05:14:18.056Z,22.53
2019-05-22T05:16:47.880Z,21.97
2019-05-22T05:19:16.394Z,21.33
2019-05-22T05:21:45.101Z,21.43
2019-05-22T05:24:13.874Z,21.53
2019-05-22T05:26:43.705Z,22.10
2019-05-22T05:29:26.821Z,21.80
2019-05-22T05:31:55.343Z,21.77
2019-05-22T05:34:30.412Z,22.13
2019-05-22T05:37:01.944Z,21.80
2019-05-22T05:39:40.090Z,22.67
2019-05-22T05:42:09.181Z,22.30
2019-05-22T05:44:37.724Z,22.40
2019-05-22T05:47:06.996Z,22.17
2019-05-22T05:49:35.671Z,21.87
2019-05-22T05:52:06.175Z,22.10
2019-05-22T05:54:35.545Z,22.30
2019-05-22T05:57:33.425Z,21.57
2019-05-22T06:00:05.012Z,22.13
2019-05-22T06:02:34.240Z,21.60
2019-05-22T06:05:04.009Z,21.20
2019-05-22T06:07:32.666Z,22.13
2019-05-22T06:10:29.625Z,21.80
2019-05-22T06:12:59.180Z,21.53
2019-05-22T06:15:46.342Z,21.13
2019-05-22T06:18:27.028Z,22.97
2019-05-22T06:21:03.893Z,22.50
2019-05-22T06:23:29.561Z,21.77
2019-05-22T06:25:58.753Z,20.27
2019-05-22T06:28:30.935Z,19.67
2019-05-22T06:31:01.852Z,18.73
2019-05-22T06:33:34.210Z,18.47
2019-05-22T06:36:06.353Z,18.73
2019-05-22T06:38:39.244Z,18.63
2019-05-22T06:41:08.790Z,18.07
2019-05-22T06:43:40.284Z,17.90
2019-05-22T06:46:09.069Z,17.43
2019-05-22T06:48:37.724Z,18.77
2019-05-22T06:51:18.676Z,17.30
2019-05-22T06:53:36.969Z,18.50
2019-05-22T06:56:05.556Z,18.10
2019-05-22T06:58:34.228Z,17.77
2019-05-22T07:01:03.282Z,17.70
2019-05-22T07:03:32.997Z,19.17
2019-05-22T07:06:02.389Z,19.10
2019-05-22T07:08:32.444Z,18.07
2019-05-22T07:11:01.231Z,19.07
2019-05-22T07:13:30.074Z,17.70
2019-05-22T07:16:00.646Z,19.17
2019-05-22T07:18:29.802Z,17.50
2019-05-22T07:20:58.307Z,19.50
2019-05-22T07:23:27.647Z,19.60
2019-05-22T07:25:57.504Z,20.30
2019-05-22T07:28:27.061Z,18.33
2019-05-22T07:30:55.907Z,19.57
2019-05-22T07:33:24.393Z,18.83
2019-05-22T07:36:08.387Z,20.03
2019-05-22T07:38:23.358Z,18.97
2019-05-22T07:40:53.045Z,19.67
2019-05-22T07:43:22.692Z,20.83
2019-05-22T07:45:53.597Z,20.43
2019-05-22T07:48:25.456Z,21.57
2019-05-22T07:50:55.275Z,21.30
2019-05-22T07:53:26.277Z,21.20
2019-05-22T07:55:56.543Z,21.40
2019-05-22T07:58:26.514Z,20.77
2019-05-22T08:00:56.942Z,21.17
2019-05-22T08:03:26.265Z,21.87
2019-05-22T08:05:56.611Z,20.77
2019-05-22T08:08:26.841Z,21.83
2019-05-22T08:10:57.282Z,20.47
2019-05-22T08:13:27.036Z,20.63
2019-05-22T08:15:55.734Z,20.73
2019-05-22T08:18:26.559Z,21.17
2019-05-22T08:20:55.763Z,23.50
2019-05-22T08:23:26.672Z,21.53
2019-05-22T08:25:57.865Z,21.13
2019-05-22T08:28:26.981Z,20.40
2019-05-22T08:30:55.906Z,19.43
2019-05-22T08:33:24.965Z,20.63
2019-05-22T08:35:53.673Z,20.27
2019-05-22T08:38:27.753Z,18.57
2019-05-22T08:40:58.014Z,19.33
2019-05-22T08:43:27.217Z,19.90
2019-05-22T08:45:56.377Z,20.23
2019-05-22T08:48:25.593Z,21.33
2019-05-22T08:50:55.127Z,20.67
2019-05-22T08:53:24.636Z,19.53
2019-05-22T08:55:54.792Z,20.57
2019-05-22T08:58:23.561Z,18.97
2019-05-22T09:00:52.463Z,18.53
2019-05-22T09:03:21.172Z,19.43
2019-05-22T09:05:50.000Z,19.60
2019-05-22T09:08:18.601Z,18.30
2019-05-22T09:10:47.270Z,19.23
2019-05-22T09:13:15.913Z,18.80
2019-05-22T09:15:46.090Z,19.47
2019-05-22T09:18:15.405Z,19.03
2019-05-22T09:20:49.493Z,18.43
2019-05-22T09:23:15.473Z,19.37
2019-05-22T09:25:44.276Z,18.73
2019-05-22T09:28:13.287Z,18.70
2019-05-22T09:30:41.826Z,18.07
2019-05-22T09:33:11.894Z,18.37
2019-05-22T09:35:40.831Z,18.27
2019-05-22T09:38:09.376Z,18.77
2019-05-22T09:40:38.189Z,20.00
2019-05-22T09:43:06.997Z,19.00
2019-05-22T09:45:36.724Z,18.70
2019-05-22T09:48:06.900Z,19.00
2019-05-22T09:50:35.864Z,16.97
2019-05-22T09:53:07.348Z,16.73
2019-05-22T09:55:36.722Z,16.00
2019-05-22T09:58:05.778Z,15.57
2019-05-22T10:00:34.583Z,14.97
2019-05-22T10:03:04.998Z,13.80
2019-05-22T10:05:33.525Z,12.47
2019-05-22T10:08:03.175Z,13.57
2019-05-22T10:10:32.326Z,13.13
2019-05-22T10:13:01.486Z,12.33
2019-05-22T10:15:31.183Z,13.63
2019-05-22T10:18:00.842Z,12.93
2019-05-22T10:20:29.861Z,13.03
2019-05-22T10:23:14.195Z,13.40
2019-05-22T10:25:29.338Z,13.40
2019-05-22T10:27:59.419Z,14.30
2019-05-22T10:30:28.879Z,16.47
2019-05-22T10:32:57.286Z,16.43
2019-05-22T10:35:27.444Z,17.30
2019-05-22T10:37:56.665Z,18.37
2019-05-22T10:40:26.399Z,15.33
2019-05-22T10:42:56.134Z,16.73
2019-05-22T10:45:25.230Z,16.27
2019-05-22T10:47:53.774Z,15.13
2019-05-22T10:50:22.784Z,16.23
2019-05-22T10:52:54.403Z,19.00
2019-05-22T10:55:22.872Z,16.97
2019-05-22T10:57:51.582Z,16.03
2019-05-22T11:00:21.944Z,13.57
2019-05-22T11:02:50.891Z,14.87
2019-05-22T11:05:21.420Z,12.90
2019-05-22T11:07:50.490Z,12.10
2019-05-22T11:10:22.067Z,11.90
2019-05-22T11:12:51.468Z,12.07
2019-05-22T11:15:21.713Z,11.73
2019-05-22T11:17:50.873Z,11.47
2019-05-22T11:20:20.085Z,11.40
2019-05-22T11:25:40.928Z,11.60
2019-05-22T11:28:09.517Z,11.00
2019-05-22T11:30:38.563Z,9.78
2019-05-22T11:33:08.673Z,10.58
2019-05-22T11:35:37.522Z,10.80
2019-05-22T11:38:05.947Z,9.60
2019-05-22T11:40:34.685Z,9.33
2019-05-22T11:43:05.044Z,9.65
2019-05-22T11:45:34.191Z,9.97
2019-05-22T11:48:02.798Z,10.30
2019-05-22T11:50:31.612Z,9.83
2019-05-22T11:53:00.113Z,9.03
2019-05-22T11:55:44.047Z,9.28
2019-05-22T11:57:59.901Z,8.98
2019-05-22T12:00:28.848Z,9.10
2019-05-22T12:02:57.878Z,9.20
2019-05-22T12:05:26.837Z,8.98
2019-05-22T12:07:55.254Z,7.95
2019-05-22T12:10:25.293Z,9.30
2019-05-22T12:12:56.349Z,8.60
2019-05-22T12:15:27.190Z,8.88
2019-05-22T12:17:56.883Z,8.30
2019-05-22T12:20:26.301Z,8.65
2019-05-22T12:22:56.537Z,8.70
2019-05-22T12:25:26.614Z,8.55
2019-05-22T12:27:55.894Z,9.10
2019-05-22T12:30:25.129Z,7.95
2019-05-22T12:32:54.217Z,7.53
2019-05-22T12:35:24.074Z,7.80
2019-05-22T12:37:53.082Z,8.23
2019-05-22T12:40:22.405Z,7.90
2019-05-22T12:42:52.353Z,8.33
2019-05-22T12:45:26.918Z,8.28
2019-05-22T12:47:56.145Z,8.28
2019-05-22T12:50:28.453Z,8.73
2019-05-22T12:52:57.781Z,7.47
2019-05-22T12:55:26.329Z,8.10
2019-05-22T12:57:55.780Z,8.13
2019-05-22T13:00:26.908Z,7.90
2019-05-22T13:02:58.234Z,7.03
2019-05-22T13:05:27.573Z,7.45
2019-05-22T13:07:57.801Z,6.37
2019-05-22T13:10:27.566Z,6.80
2019-05-22T13:12:57.097Z,6.75
2019-05-22T13:15:26.344Z,6.85
2019-05-22T13:17:55.720Z,6.37
2019-05-22T13:20:41.943Z,5.58
2019-05-22T13:22:58.567Z,5.50
2019-05-22T13:25:33.925Z,5.83
2019-05-22T13:28:05.476Z,4.90
2019-05-22T13:30:36.108Z,5.08
2019-05-22T13:33:08.915Z,5.72
2019-05-22T13:35:37.922Z,5.50
2019-05-22T13:38:06.891Z,5.03
2019-05-22T13:40:36.733Z,5.00
2019-05-22T13:43:05.541Z,4.75
2019-05-22T13:45:34.818Z,4.70
2019-05-22T13:48:03.812Z,4.72
2019-05-22T13:50:32.871Z,4.50
2019-05-22T13:53:03.653Z,4.60
2019-05-22T13:55:33.549Z,5.10
2019-05-22T13:58:03.613Z,5.25
2019-05-22T14:00:32.399Z,5.00
2019-05-22T14:03:01.289Z,4.83
2019-05-22T14:05:30.901Z,5.08
2019-05-22T14:08:00.251Z,4.62
2019-05-22T14:10:29.397Z,5.85
2019-05-22T14:12:58.442Z,5.47
2019-05-22T14:15:45.859Z,4.95
2019-05-22T14:17:57.669Z,5.10
2019-05-22T14:20:26.292Z,5.00
2019-05-22T14:22:55.078Z,4.87
2019-05-22T14:25:25.739Z,4.90
2019-05-22T14:27:54.684Z,4.67
2019-05-22T14:30:26.515Z,4.53
2019-05-22T14:32:57.148Z,5.40
2019-05-22T14:35:27.735Z,4.87
2019-05-22T14:37:57.134Z,4.53
2019-05-22T14:40:26.222Z,4.62
2019-05-22T14:42:55.517Z,4.85
2019-05-22T14:45:24.645Z,4.10
2019-05-22T14:47:53.995Z,3.90
2019-05-22T14:50:23.966Z,4.42
2019-05-22T14:52:53.111Z,4.12
2019-05-22T14:55:22.368Z,4.25
2019-05-22T14:57:51.937Z,4.33
2019-05-22T15:00:22.628Z,3.83
2019-05-22T15:02:55.514Z,4.35
2019-05-22T15:05:22.517Z,4.17
2019-05-22T15:07:51.169Z,4.35
2019-05-22T15:10:21.312Z,4.50
2019-05-22T15:12:49.989Z,5.22
2019-05-22T15:15:18.967Z,4.03
2019-05-22T15:17:47.477Z,3.85
2019-05-22T15:20:21.022Z,3.77
2019-05-22T15:23:10.320Z,3.65
2019-05-22T15:25:38.718Z,3.12
2019-05-22T15:28:07.662Z,2.92
2019-05-22T15:30:36.580Z,2.98
2019-05-22T15:33:05.262Z,3.25
2019-05-22T15:35:33.745Z,2.80
2019-05-22T15:38:02.988Z,3.33
2019-05-22T15:40:31.754Z,2.75
2019-05-22T15:43:00.996Z,3.30
2019-05-22T15:45:31.820Z,2.80
2019-05-22T15:48:06.270Z,3.20
2019-05-22T15:50:37.273Z,3.20
2019-05-22T15:53:12.644Z,3.15
2019-05-22T15:55:42.809Z,3.60
2019-05-22T15:58:13.449Z,3.50
2019-05-22T16:00:44.516Z,3.77
2019-05-22T16:03:21.257Z,3.52
2019-05-22T16:05:51.839Z,3.67
2019-05-22T16:08:20.319Z,3.67
2019-05-22T16:10:51.353Z,3.70
2019-05-22T16:13:22.826Z,3.70
2019-05-22T16:15:54.782Z,3.47
2019-05-22T16:18:28.421Z,3.72
2019-05-22T16:21:00.449Z,3.77
2019-05-22T16:23:31.643Z,3.87
2019-05-22T16:26:01.787Z,3.95
2019-05-22T16:28:35.722Z,4.03
2019-05-22T16:31:03.610Z,4.12
2019-05-22T16:33:33.469Z,4.25
2019-05-22T16:36:02.519Z,5.65
2019-05-22T16:38:31.965Z,5.97
2019-05-22T16:41:00.564Z,5.08
2019-05-22T16:43:47.423Z,5.78
2019-05-22T16:46:00.185Z,5.05
2019-05-22T16:48:29.810Z,4.65
2019-05-22T16:50:59.462Z,6.25
2019-05-22T16:53:29.328Z,5.58
2019-05-22T16:55:58.668Z,5.70
2019-05-22T16:58:29.872Z,5.60
2019-05-22T17:00:59.445Z,5.10
2019-05-22T17:03:28.953Z,4.85
2019-05-22T17:05:57.809Z,5.85
2019-05-22T17:08:28.815Z,6.03
2019-05-22T17:10:59.465Z,6.53
2019-05-22T17:13:30.155Z,5.60
2019-05-22T17:15:59.365Z,5.35
2019-05-22T17:18:44.227Z,5.60
2019-05-22T17:21:01.858Z,5.55
2019-05-22T17:23:30.504Z,5.65
2019-05-22T17:25:59.342Z,5.28
2019-05-22T17:28:29.308Z,5.80
2019-05-22T17:30:58.478Z,5.75
2019-05-22T17:33:27.546Z,5.67
2019-05-22T17:35:56.589Z,5.20
2019-05-22T17:38:27.327Z,6.45
2019-05-22T17:40:56.411Z,6.20
2019-05-22T17:43:26.330Z,6.45
2019-05-22T17:45:56.191Z,6.00
2019-05-22T17:48:25.705Z,6.28
2019-05-22T17:50:55.230Z,6.37
2019-05-22T17:53:24.769Z,6.70
2019-05-22T17:55:53.508Z,6.33
2019-05-22T17:58:27.242Z,6.03
2019-05-22T18:00:53.768Z,6.03
2019-05-22T18:03:23.528Z,6.17
2019-05-22T18:05:52.539Z,6.00
2019-05-22T18:08:22.075Z,6.47
2019-05-22T18:10:51.119Z,6.27
2019-05-22T18:13:20.241Z,7.03
2019-05-22T18:15:49.118Z,7.00
2019-05-22T18:18:18.783Z,8.57
2019-05-22T18:20:47.533Z,7.80
2019-05-22T18:23:16.574Z,7.67
2019-05-22T18:25:45.781Z,7.73
2019-05-22T18:28:15.196Z,7.47
2019-05-22T18:30:44.413Z,7.97
2019-05-22T18:33:13.581Z,8.60
2019-05-22T18:35:42.535Z,9.00
2019-05-22T18:38:11.470Z,8.80
2019-05-22T18:40:40.538Z,8.53
2019-05-22T18:43:09.906Z,8.37
2019-05-22T18:45:38.836Z,8.73
2019-05-22T18:48:07.864Z,9.17
2019-05-22T18:50:36.921Z,8.90
2019-05-22T18:53:07.003Z,8.63
2019-05-22T18:55:35.433Z,9.07
2019-05-22T18:58:04.487Z,9.23
2019-05-22T19:00:33.368Z,9.47
2019-05-22T19:03:02.290Z,8.43
2019-05-22T19:05:32.671Z,9.67
2019-05-22T19:08:01.553Z,8.67
2019-05-22T19:10:31.571Z,9.70
2019-05-22T19:13:00.586Z,10.10
2019-05-22T19:15:29.495Z,9.57
2019-05-22T19:17:58.604Z,10.70
2019-05-22T19:20:27.167Z,9.70
2019-05-22T19:23:00.689Z,9.83
2019-05-22T19:25:27.062Z,9.53
2019-05-22T19:27:55.969Z,8.90
2019-05-22T19:30:26.639Z,9.77
2019-05-22T19:32:55.385Z,9.80
2019-05-22T19:35:23.806Z,9.77
2019-05-22T19:37:52.474Z,9.33
2019-05-22T19:40:21.305Z,9.73
2019-05-22T19:42:49.728Z,8.50
2019-05-22T19:45:20.744Z,8.80
2019-05-22T19:47:52.116Z,8.33
2019-05-22T19:50:23.898Z,8.27
2019-05-22T19:52:53.604Z,8.17
2019-05-22T19:55:23.582Z,8.87
2019-05-22T19:57:52.918Z,9.57
2019-05-22T20:00:22.083Z,8.87
2019-05-22T20:02:51.117Z,8.70
2019-05-22T20:05:22.749Z,9.67
2019-05-22T20:07:51.933Z,9.20
2019-05-22T20:10:21.476Z,9.93
2019-05-22T20:12:50.007Z,9.20
2019-05-22T20:15:19.017Z,9.47
2019-05-22T20:17:48.076Z,10.17
2019-05-22T20:20:17.694Z,10.33
2019-05-22T20:22:46.706Z,9.80
2019-05-22T20:25:16.528Z,10.13
2019-05-22T20:27:45.686Z,10.00
2019-05-22T20:30:15.694Z,9.80
2019-05-22T20:32:44.993Z,10.10
2019-05-22T20:35:14.154Z,10.47
2019-05-22T20:37:45.212Z,11.07
2019-05-22T20:40:14.596Z,10.60
2019-05-22T20:42:44.406Z,12.30
2019-05-22T20:45:15.017Z,14.47
2019-05-22T20:47:46.074Z,15.00
2019-05-22T20:50:16.863Z,14.03
2019-05-22T20:52:45.837Z,11.77
2019-05-22T20:55:14.994Z,11.73
2019-05-22T20:57:43.953Z,12.67
2019-05-22T21:00:16.068Z,10.70
2019-05-22T21:02:46.432Z,10.67
2019-05-22T21:05:18.158Z,11.63
2019-05-22T21:07:49.649Z,11.10
2019-05-22T21:10:20.602Z,10.27
2019-05-22T21:12:50.687Z,10.00
2019-05-22T21:15:19.705Z,11.07
2019-05-22T21:17:49.161Z,11.17
2019-05-22T21:20:21.015Z,10.27
2019-05-22T21:22:49.919Z,10.10
2019-05-22T21:25:18.919Z,9.07
2019-05-22T21:27:47.387Z,9.47
2019-05-22T21:30:16.401Z,9.87
2019-05-22T21:32:45.841Z,9.90
2019-05-22T21:35:17.075Z,9.77
2019-05-22T21:37:45.464Z,10.33
2019-05-22T21:40:14.749Z,10.23
2019-05-22T21:42:45.466Z,10.53
2019-05-22T21:45:14.711Z,11.53
2019-05-22T21:47:44.691Z,14.73
2019-05-22T21:50:13.473Z,12.93
2019-05-22T21:52:43.309Z,12.10
2019-05-22T21:55:14.165Z,11.17
2019-05-22T21:57:44.209Z,12.43
2019-05-22T22:00:17.052Z,12.13
2019-05-22T22:02:48.881Z,11.53
2019-05-22T22:05:19.900Z,13.57
2019-05-22T22:07:49.525Z,13.60
2019-05-22T22:10:18.086Z,11.83
2019-05-22T22:12:47.841Z,12.67
2019-05-22T22:15:17.075Z,12.60
2019-05-22T22:17:46.804Z,12.67
2019-05-22T22:20:17.114Z,11.20
2019-05-22T22:22:45.626Z,12.23
2019-05-22T22:25:15.448Z,11.67
2019-05-22T22:27:44.300Z,10.40
2019-05-22T22:30:15.581Z,10.97
2019-05-22T22:32:46.258Z,10.43
2019-05-22T22:35:16.374Z,10.83
2019-05-22T22:37:46.217Z,11.03
2019-05-22T22:40:18.080Z,9.60
2019-05-22T22:42:48.704Z,11.27
2019-05-22T22:45:20.713Z,9.90
2019-05-22T22:47:50.855Z,10.93
2019-05-22T22:50:21.826Z,11.03
2019-05-22T22:52:50.694Z,10.27
2019-05-22T22:55:22.023Z,10.57
2019-05-22T22:57:52.389Z,11.33
2019-05-22T23:00:23.877Z,9.87
2019-05-22T23:02:53.830Z,10.50
2019-05-22T23:05:24.037Z,11.00
2019-05-22T23:07:54.806Z,10.37
2019-05-22T23:10:24.186Z,11.20
2019-05-22T23:12:54.937Z,10.17
2019-05-22T23:15:25.064Z,10.40
2019-05-22T23:17:53.769Z,11.23
2019-05-22T23:20:21.265Z,9.87
2019-05-22T23:22:49.384Z,10.83
2019-05-22T23:25:20.374Z,9.20
2019-05-22T23:27:51.222Z,9.93
2019-05-22T23:30:21.780Z,9.80
2019-05-22T23:32:51.299Z,9.87
2019-05-22T23:35:22.619Z,11.47
2019-05-22T23:37:51.989Z,10.10
2019-05-22T23:40:26.726Z,10.23
2019-05-22T23:42:55.616Z,10.77
2019-05-22T23:45:24.475Z,9.73
2019-05-22T23:47:56.292Z,10.80
2019-05-22T23:50:25.493Z,11.40
2019-05-22T23:52:54.436Z,9.97
2019-05-22T23:55:23.979Z,10.27
2019-05-22T23:57:53.140Z,10.70
